Date,TemperatureHighF,TemperatureAvgF,TemperatureLowF,DewpointHighF,DewpointAvgF,DewpointLowF,HumidityHigh,HumidityAvg,HumidityLow,PressureMaxIn,PressureMinIn,WindSpeedMaxMPH,WindSpeedAvgMPH,GustSpeedMaxMPH,PrecipitationSumIn
2013-1-1,27.7,18.9,7.9,-99.9,-99.9,-99.9,38,30,23,30.44,30.35,183,13,183,0.00
2013-1-2,35.6,26.8,23.2,-99.9,-99.9,-99.9,39,28,24,30.38,30.20,179,30,179,0.00
2013-1-3,31.5,28.6,25.2,-99.9,-99.9,-99.9,40,30,23,41.72,25.71,11,4,181,0.00
2013-1-4,33.1,27.1,20.3,-99.9,-99.9,-99.9,33,27,23,41.72,30.26,332,8,332,0.00
2013-1-5,35.6,26.0,17.8,-99.9,-99.9,-99.9,44,32,22,30.35,30.14,17,4,134,0.00
2013-1-6,38.7,26.4,14.4,-99.9,-99.9,-99.9,44,32,21,30.47,30.26,10,4,11,0.00
2013-1-7,45.3,33.5,21.7,-99.9,-99.9,-99.9,43,29,20,30.26,30.09,16,5,20,0.00
2013-1-8,45.5,29.5,16.0,-99.9,-99.9,-99.9,46,35,22,30.29,30.00,13,2,16,0.00
2013-1-9,48.7,34.3,24.1,-99.9,-99.9,-99.9,46,34,19,30.56,30.29,10,1,11,0.00
2013-1-10,39.6,34.1,24.3,-99.9,-99.9,-99.9,54,46,23,30.44,29.82,12,3,13,0.16
2013-1-11,52.0,41.9,26.4,-99.9,-99.9,-99.9,54,43,26,29.94,29.52,18,7,22,0.00
2013-1-12,27.0,19.8,12.9,-99.9,-99.9,-99.9,31,26,25,30.29,29.94,14,7,17,0.00
2013-1-13,22.3,14.7,8.6,-99.9,-99.9,-99.9,29,26,25,30.47,30.26,12,3,13,0.00
2013-1-14,34.5,19.2,7.9,-99.9,-99.9,-99.9,38,26,22,30.59,30.47,7,1,11,0.00
2013-1-15,39.4,25.0,12.7,-99.9,-99.9,-99.9,39,29,21,30.47,30.17,10,4,14,0.00
2013-1-16,50.2,36.0,23.7,-99.9,-99.9,-99.9,36,27,19,30.38,30.06,10,4,13,0.00
2013-1-17,46.6,33.7,26.1,-99.9,-99.9,-99.9,54,39,22,30.59,30.38,6,1,7,0.00
2013-1-18,54.0,40.5,29.7,-99.9,-99.9,-99.9,45,27,18,30.41,30.03,15,5,20,0.00
2013-1-19,52.7,40.2,26.1,-99.9,-99.9,-99.9,38,26,18,30.47,30.03,16,6,19,0.00
2013-1-20,25.9,20.4,15.4,-99.9,-99.9,-99.9,31,25,24,30.53,30.44,10,3,11,0.00
2013-1-21,19.2,13.8,11.1,-99.9,-99.9,-99.9,34,28,26,30.59,30.50,183,14,233,0.00
2013-1-22,24.3,16.5,13.3,-99.9,-99.9,-99.9,28,27,24,30.50,23.77,23,4,181,0.00
2013-1-23,36.9,25.6,13.8,-99.9,-99.9,-99.9,35,27,22,30.41,30.29,179,7,234,0.00
2013-1-24,31.3,27.1,17.1,-99.9,-99.9,-99.9,26,24,23,30.41,30.29,184,19,233,0.00
2013-1-25,52.9,36.7,16.7,-99.9,-99.9,-99.9,30,22,18,30.35,19.99,23,3,181,0.00
2013-1-26,56.7,48.8,41.4,-99.9,-99.9,-99.9,21,19,17,30.17,19.99,136,14,233,0.00
2013-1-27,43.9,41.3,36.7,-99.9,-99.9,-99.9,53,49,21,30.11,26.60,13,4,57,0.16
2013-1-28,45.0,43.2,37.0,-99.9,-99.9,-99.9,54,53,53,29.82,20.04,23,3,233,0.00
2013-1-29,38.5,34.7,33.3,-99.9,-99.9,-99.9,54,44,37,29.85,29.73,171,19,233,0.00
2013-1-30,34.9,28.5,12.9,-99.9,-99.9,-99.9,42,38,35,30.09,29.76,23,1,57,0.00
2013-1-31,17.1,12.2,10.0,-99.9,-99.9,-99.9,44,37,35,30.44,22.82,184,26,184,0.00
2013-2-1,29.5,17.6,11.7,-99.9,-99.9,-99.9,36,33,25,30.23,22.82,134,13,181,0.00
2013-2-2,38.5,32.8,22.6,-99.9,-99.9,-99.9,43,33,24,30.32,30.20,23,3,181,0.00
2013-2-3,44.6,38.5,34.0,-99.9,-99.9,-99.9,35,29,20,30.23,29.94,184,22,233,0.00
2013-2-4,36.0,28.8,24.6,-99.9,-99.9,-99.9,42,34,31,30.17,29.94,180,17,233,0.00
2013-2-5,50.7,32.6,28.2,-99.9,-99.9,-99.9,33,29,19,37.76,30.14,184,27,233,0.00
2013-2-6,56.7,47.2,31.5,-99.9,-99.9,-99.9,37,24,20,30.20,29.97,33,5,43,0.00
2013-2-7,56.7,47.4,30.0,-99.9,-99.9,-99.9,36,25,20,30.38,29.97,170,18,233,0.00
2013-2-8,37.9,32.9,27.0,-99.9,-99.9,-99.9,41,31,26,30.47,30.35,35,10,315,0.00
2013-2-9,52.3,41.3,37.9,-99.9,-99.9,-99.9,40,26,21,30.35,20.22,170,21,233,0.00
2013-2-10,45.5,39.2,36.9,-99.9,-99.9,-99.9,52,38,28,29.79,29.44,192,32,354,0.00
2013-2-11,38.7,35.2,27.3,-99.9,-99.9,-99.9,35,30,21,30.29,29.55,152,21,315,0.00
2013-2-12,51.1,38.8,21.0,-99.9,-99.9,-99.9,45,28,19,30.29,22.64,35,3,233,0.00
2013-2-13,54.3,48.2,39.2,-99.9,-99.9,-99.9,23,19,18,29.97,22.64,197,10,233,0.00
2013-2-14,44.6,41.3,33.6,-99.9,-99.9,-99.9,36,24,20,30.20,29.97,170,16,221,0.00
2013-2-15,43.7,37.6,21.7,-99.9,-99.9,-99.9,45,26,20,30.50,30.17,350,45,350,0.00
2013-2-16,38.8,27.1,14.0,4.6,-62.0,-99.9,44,32,21,30.47,29.95,14,5,16,0.00
2013-2-17,60.6,41.6,24.1,18.1,7.9,1.4,42,26,17,29.95,29.53,21,6,21,0.00
2013-2-18,45.0,34.3,25.5,17.6,4.4,-5.1,49,28,22,30.06,29.50,26,9,29,0.00
2013-2-19,28.0,20.7,13.5,-0.6,-8.3,-14.4,34,27,23,30.33,30.06,24,8,26,0.00
2013-2-20,25.2,17.0,7.5,-6.5,-12.3,-19.5,27,26,24,30.33,30.12,13,5,13,0.00
2013-2-21,24.4,22.4,21.0,5.7,-1.3,-8.3,47,36,24,30.18,29.80,19,7,21,0.00
2013-2-22,24.4,19.5,11.1,4.3,-3.4,-11.2,48,36,27,30.01,29.80,13,5,13,0.00
2013-2-23,38.3,22.8,6.4,6.6,-3.4,-15.3,38,31,24,29.98,29.80,13,4,13,0.04
2013-2-24,47.7,33.0,23.5,10.6,5.4,2.1,42,31,19,30.04,29.86,11,3,11,0.04
2013-2-25,35.4,31.0,27.3,9.7,7.0,2.3,43,36,25,30.04,29.86,15,6,17,0.00
2013-2-26,32.4,28.1,24.4,10.6,8.1,3.7,50,43,31,29.92,29.77,16,-3,18,0.00
2013-2-27,40.3,32.1,25.3,8.2,4.9,-0.4,47,32,21,30.09,29.89,25,11,25,0.00
2013-2-28,33.3,30.1,27.0,7.0,3.5,0.3,38,32,28,30.21,30.06,19,8,19,0.00
2013-3-1,32.7,27.0,21.2,0.7,-2.3,-6.2,32,28,23,30.33,30.18,16,7,17,0.00
2013-3-2,42.8,29.9,14.2,6.8,0.5,-5.8,45,29,20,30.30,30.04,13,3,13,0.00
2013-3-3,47.3,36.5,28.8,10.2,6.3,3.2,36,28,22,30.04,29.65,16,6,16,0.00
2013-3-4,42.3,35.8,29.7,17.8,8.2,-1.1,51,32,23,30.04,29.59,17,5,17,0.00
2013-3-5,34.2,28.9,22.8,0.7,-1.9,-4.9,33,26,22,30.36,30.04,25,10,25,0.00
2013-3-6,40.8,30.4,20.7,3.7,0.2,-3.3,38,28,21,30.39,30.18,14,5,14,0.00
2013-3-7,42.4,30.2,25.9,7.3,2.7,0.1,34,31,21,30.21,30.09,16,-1,16,0.00
2013-3-8,60.4,44.9,30.0,25.7,11.9,4.3,47,27,19,30.12,29.86,23,6,23,0.04
2013-3-9,58.3,49.3,35.2,33.1,25.4,15.4,51,39,28,29.86,29.50,22,7,22,0.04
2013-3-10,35.2,27.0,22.1,16.5,11.7,7.5,55,52,44,29.95,29.71,32,13,26,0.12
2013-3-11,32.5,24.7,16.3,8.2,1.4,-2.6,54,37,25,29.98,29.86,15,5,15,0.00
2013-3-12,36.1,31.0,23.9,8.6,3.7,0.5,45,32,24,30.24,29.98,18,6,19,0.12
2013-3-13,43.7,28.5,16.7,9.9,2.1,-1.5,45,33,20,30.42,30.18,11,3,12,0.00
2013-3-14,60.6,45.8,33.6,19.8,11.0,0.0,38,25,19,30.18,30.04,11,3,11,0.00
2013-3-15,61.7,45.2,37.0,22.1,17.8,14.4,42,34,19,30.04,29.68,10,-3,11,0.00
2013-3-16,44.2,33.7,28.6,22.1,8.0,1.2,44,34,25,30.12,29.83,19,-101,20,0.00
2013-3-17,47.8,36.9,26.1,16.9,6.8,1.0,46,29,22,30.12,29.71,17,-89,17,0.00
2013-3-18,40.8,36.2,29.8,21.6,6.5,-3.5,53,30,21,30.04,29.68,17,-599,17,0.00
2013-3-19,51.8,37.7,26.4,12.0,2.6,-4.2,31,23,18,30.30,30.01,16,-422,16,0.00
2013-3-20,38.3,31.4,18.7,1.9,-1.9,-9.2,33,24,21,30.36,30.06,15,-15,15,0.00
2013-3-21,34.2,28.9,22.5,5.2,-1.2,-6.5,46,27,22,30.06,29.86,15,5,15,0.00
2013-3-22,35.4,32.1,28.4,8.8,2.4,-2.9,40,28,22,30.01,29.92,11,3,11,0.00
2013-3-23,37.9,32.7,29.5,15.6,5.8,-1.1,49,33,21,30.06,29.98,15,-212,20,0.00
2013-3-24,30.2,27.2,24.4,11.7,0.8,-5.3,47,32,23,30.09,30.04,20,-76,20,0.08
2013-3-25,31.5,27.8,25.3,7.9,1.6,-2.4,44,32,25,30.33,30.09,20,10,20,0.00
2013-3-26,43.3,33.7,21.4,8.6,0.6,-5.1,36,24,20,30.33,30.18,11,4,11,0.00
2013-3-27,54.0,41.2,30.2,11.5,5.7,-1.3,30,23,18,30.21,30.12,17,6,17,0.00
2013-3-28,61.7,46.2,27.1,21.9,11.3,4.6,42,25,17,30.21,30.09,11,3,12,0.00
2013-3-29,68.7,52.5,32.5,22.1,15.5,5.0,40,24,17,30.18,29.98,17,5,18,0.00
2013-3-30,66.9,57.5,50.7,38.5,24.2,12.9,51,30,17,30.06,29.89,36,-2,36,0.87
2013-3-31,58.8,50.5,34.7,20.8,14.6,5.2,44,25,17,30.12,29.92,22,-19,23,0.04
2013-4-1,41.4,33.9,25.2,15.6,2.8,-2.7,46,27,21,30.30,30.12,17,4,17,0.04
2013-4-2,52.7,40.4,24.4,10.8,4.9,-4.0,36,23,18,30.30,30.18,9,2,10,0.00
2013-4-3,57.2,44.6,33.8,12.7,6.2,-1.1,25,20,17,30.30,30.18,15,6,15,0.00
2013-4-4,63.0,48.5,31.8,19.6,12.1,-9.2,40,24,17,30.18,30.01,13,4,13,0.00
2013-4-5,70.5,54.3,36.5,23.5,14.8,5.4,32,21,17,30.12,29.68,25,8,25,0.00
2013-4-6,68.7,60.1,53.6,45.5,30.5,14.2,56,31,19,29.77,29.59,22,7,23,0.00
2013-4-7,73.9,58.2,44.4,54.3,42.5,38.7,94,57,31,29.80,29.59,22,3,29,0.43
2013-4-8,68.7,58.8,47.7,63.0,56.4,48.4,98,90,70,29.68,29.62,14,3,14,0.00
2013-4-9,64.4,47.2,34.3,61.7,47.2,35.1,98,95,86,29.95,29.53,25,9,25,0.71
2013-4-10,36.3,34.7,33.1,37.9,35.7,34.3,98,97,91,29.95,29.80,21,8,21,0.28
2013-4-11,37.0,34.0,30.7,35.4,32.0,29.3,98,87,75,29.80,29.68,16,4,19,0.00
2013-4-12,43.7,36.2,32.7,32.2,30.3,28.2,87,72,46,30.01,29.74,18,6,18,0.00
2013-4-13,58.3,44.5,28.0,42.4,33.3,26.4,87,64,45,30.01,29.59,19,6,20,0.04
2013-4-14,65.7,54.5,44.2,49.3,40.6,28.4,86,61,34,29.68,29.27,26,7,28,0.00
2013-4-15,46.9,39.9,36.7,30.0,25.7,22.6,61,53,46,29.95,29.68,13,6,13,0.00
2013-4-16,51.3,49.4,46.8,32.5,29.4,27.0,55,44,38,30.12,30.06,16,7,16,0.00
2013-4-17,46.8,41.5,37.0,43.0,39.3,32.4,98,89,55,30.09,29.71,23,8,23,0.55
2013-4-18,37.4,34.7,31.6,37.2,32.6,28.0,98,87,69,29.92,29.71,24,10,25,0.28
2013-4-19,47.3,38.3,30.6,29.8,26.0,21.6,81,56,36,30.09,29.86,18,7,18,0.00
2013-4-20,49.3,40.0,27.3,29.1,25.7,22.5,80,55,39,30.21,30.06,17,4,17,0.00
2013-4-21,68.4,55.9,43.9,52.2,38.7,28.8,93,54,34,30.09,29.95,29,9,29,0.28
2013-4-22,54.1,44.5,33.8,52.5,44.0,30.9,98,94,86,30.18,29.92,24,7,24,1.34
2013-4-23,39.7,34.3,30.9,31.5,25.3,19.8,87,64,45,30.27,30.12,24,9,25,0.00
2013-4-24,60.6,42.4,26.1,36.7,27.7,21.9,82,58,26,30.18,30.01,24,4,24,0.00
2013-4-25,69.3,52.5,32.4,38.7,34.0,28.6,83,52,27,30.21,29.98,26,7,26,0.00
2013-4-26,69.6,58.2,49.5,50.2,43.4,35.8,89,58,39,30.15,29.98,19,7,20,0.00
2013-4-27,70.0,56.3,44.6,52.3,48.1,42.6,98,74,36,30.15,29.92,13,3,13,0.00
2013-4-28,80.4,64.6,48.2,55.8,49.8,45.0,98,63,31,29.92,29.65,21,7,21,0.00
2013-4-29,90.9,69.4,56.5,58.3,52.0,45.5,80,54,28,29.77,29.50,15,3,15,0.00
2013-4-30,80.2,69.3,61.2,56.7,48.8,39.2,58,46,36,29.83,29.47,24,8,24,0.00
2013-5-1,61.3,42.1,33.3,43.2,39.2,34.3,98,86,44,30.39,29.83,27,10,27,0.55
2013-5-2,51.1,41.8,33.3,35.8,31.9,28.0,98,66,40,30.51,30.36,24,-34,24,0.59
2013-5-3,52.9,43.1,32.7,32.5,29.6,27.5,81,55,36,30.36,30.01,22,8,22,0.00
2013-5-4,44.1,41.0,37.8,42.1,38.3,28.9,96,86,54,30.12,29.95,22,10,22,0.00
2013-5-5,55.6,48.0,42.3,48.7,44.2,40.5,93,81,68,30.15,30.06,13,6,13,0.00
2013-5-6,68.0,56.9,48.2,50.4,48.2,46.0,92,69,42,30.12,30.01,11,2,11,0.00
2013-5-7,72.7,60.6,46.0,58.6,51.6,45.3,94,72,43,30.04,29.89,13,2,13,0.00
2013-5-8,70.7,62.9,57.2,61.7,57.7,52.7,96,80,53,29.95,29.86,11,4,15,0.04
2013-5-9,67.3,60.7,57.4,60.1,57.7,53.6,98,85,53,29.98,29.83,17,5,17,0.00
2013-5-10,70.0,59.0,50.4,55.9,50.2,44.6,94,70,36,30.09,29.98,15,4,15,0.00
2013-5-11,63.7,56.9,48.6,48.6,36.5,26.1,80,46,24,30.24,30.04,23,8,25,0.00
2013-5-12,67.3,55.8,38.3,36.1,32.8,28.9,72,43,25,30.24,30.06,11,3,11,0.00
2013-5-13,83.8,67.6,50.0,55.0,44.8,35.6,69,46,24,30.06,29.83,20,7,20,0.00
2013-5-14,102.0,81.3,60.6,61.0,52.9,45.3,84,45,17,29.83,29.62,24,6,24,0.00
2013-5-15,89.1,75.8,64.4,52.5,46.9,41.9,52,35,24,33.52,29.74,17,5,17,0.00
2013-5-16,90.9,74.8,61.9,64.6,57.9,46.2,89,58,39,29.86,29.71,17,4,17,0.00
2013-5-17,93.2,76.0,61.9,63.7,59.6,55.6,91,61,37,29.86,29.77,15,6,17,0.00
2013-5-18,87.3,74.8,63.7,70.3,65.2,55.9,98,72,57,29.86,29.65,23,7,23,0.47
2013-5-19,84.6,67.8,60.3,73.0,63.9,55.8,98,88,62,29.77,29.47,24,4,24,0.59
2013-5-20,80.1,67.6,58.8,60.8,55.4,46.9,98,69,39,29.65,29.50,19,6,20,0.04
2013-5-21,64.9,60.4,55.4,59.9,51.3,44.6,91,72,55,29.74,29.59,15,5,15,0.00
2013-5-22,61.5,56.6,51.8,54.9,51.8,50.0,96,80,62,29.98,29.74,13,5,13,0.00
2013-5-23,73.2,61.4,53.1,54.1,49.2,42.4,94,65,33,30.18,29.98,15,4,15,0.00
2013-5-24,74.5,63.3,51.6,54.9,50.2,43.7,86,62,43,30.24,29.95,23,5,23,0.00
2013-5-25,82.4,71.2,61.3,69.6,62.9,53.1,98,76,55,30.06,29.89,27,6,27,0.35
2013-5-26,87.3,75.1,68.9,70.2,67.7,64.0,91,78,58,29.95,29.77,19,8,19,0.00
2013-5-27,87.4,70.1,60.6,69.3,63.9,58.6,98,82,50,29.89,29.56,20,6,22,2.95
2013-5-28,87.1,72.5,62.8,67.6,64.2,58.5,98,77,44,29.71,29.59,18,3,18,0.00
2013-5-29,78.1,70.0,63.3,72.5,67.6,62.8,98,92,77,29.68,29.50,23,8,23,1.54
2013-5-30,77.0,66.0,60.4,65.3,60.9,55.8,98,85,58,29.62,29.50,18,5,22,0.47
2013-5-31,86.7,69.0,56.7,58.3,51.2,44.8,96,58,32,29.74,29.59,13,1,13,0.00
2013-6-1,64.8,60.4,55.9,57.6,51.7,46.2,88,69,54,30.04,29.68,13,0,13,0.00
2013-6-2,71.8,61.0,50.7,50.2,45.7,41.2,87,56,35,30.12,29.98,10,0,10,0.00
2013-6-3,79.5,65.3,52.9,56.3,50.0,45.5,85,59,41,30.01,29.77,15,0,15,0.00
2013-6-4,76.5,68.5,62.1,66.2,61.4,55.2,90,76,62,29.98,29.80,11,0,11,0.00
2013-6-5,72.5,65.5,56.3,66.2,54.7,48.6,94,66,42,30.04,29.95,11,0,11,0.28
2013-6-6,74.5,64.7,55.8,59.0,52.2,47.8,91,63,41,30.01,29.95,3,0,4,0.00
2013-6-7,82.2,66.5,53.1,56.8,50.7,44.4,90,59,33,30.01,29.86,3,0,4,0.00
2013-6-8,74.3,66.6,60.4,68.4,59.9,51.1,98,78,59,29.86,29.62,11,0,11,0.71
2013-6-9,73.2,66.2,60.4,64.2,59.0,56.7,98,76,54,29.83,29.71,11,0,12,0.00
2013-6-10,90.9,71.8,55.6,61.9,58.4,54.1,98,67,38,29.89,29.74,9,0,9,0.00
2013-6-11,97.3,81.0,69.6,72.0,64.4,51.8,91,60,36,29.80,29.62,17,-3,19,0.00
2013-6-12,88.5,78.7,64.9,73.0,64.9,54.1,89,62,38,30.04,29.62,13,0,13,0.12
2013-6-13,81.0,68.4,58.6,66.0,58.8,51.3,93,71,34,30.09,29.95,4,0,12,0.24
2013-6-14,99.5,77.7,65.3,75.2,66.1,55.2,86,70,36,30.01,29.71,16,0,16,0.00
2013-6-15,89.2,76.8,69.6,70.9,67.4,58.1,92,75,50,29.95,29.77,14,0,14,0.00
2013-6-16,93.9,77.2,66.6,71.2,65.4,58.3,98,70,38,29.98,29.89,4,0,4,0.00
2013-6-17,90.0,78.9,66.6,64.6,59.1,53.6,79,52,28,30.01,29.89,3,0,3,0.00
2013-6-18,92.1,76.2,65.1,63.3,58.4,52.3,81,56,35,30.06,29.95,3,0,3,0.00
2013-6-19,94.1,78.6,66.6,68.0,62.6,58.1,83,62,39,29.98,29.86,6,0,6,0.00
2013-6-20,96.8,82.3,70.3,74.1,69.4,62.6,86,68,52,29.92,29.77,15,0,15,0.00
2013-6-21,104.2,87.7,77.7,74.3,70.4,63.0,80,62,33,29.83,29.74,15,1,17,0.00
2013-6-22,97.2,83.1,70.2,74.1,66.4,57.7,82,59,38,29.98,29.71,16,1,16,0.00
2013-6-23,82.4,75.1,65.8,73.0,68.5,62.2,97,79,55,29.92,29.74,15,0,17,0.59
2013-6-24,94.1,80.5,73.8,75.4,72.2,69.4,98,78,64,29.83,29.68,11,0,11,0.31
2013-6-25,97.5,83.4,72.7,76.6,70.9,61.7,84,70,55,29.74,29.62,15,0,18,0.00
2013-6-26,95.0,83.5,74.1,76.6,67.6,55.2,98,62,27,29.86,29.65,2,0,4,0.00
2013-6-27,86.7,76.2,70.5,72.7,69.8,64.8,97,78,53,29.98,29.86,8,0,9,0.12
2013-6-28,86.0,78.0,69.1,72.5,62.8,52.7,97,61,31,29.98,29.89,7,0,14,0.00
2013-6-29,82.6,73.9,65.1,61.9,58.3,53.2,79,56,35,29.92,29.89,17,1,17,0.00
2013-6-30,79.2,70.3,60.6,62.2,56.5,49.5,86,60,34,30.09,29.92,4,0,4,0.00
2013-7-1,84.2,72.0,57.2,59.9,54.1,49.6,82,54,30,30.18,30.06,4,0,4,0.00
2013-7-2,91.2,72.6,61.2,62.4,57.6,50.5,84,60,33,30.12,30.04,3,0,3,0.00
2013-7-3,94.3,74.9,60.8,62.6,57.4,49.5,92,60,30,30.06,29.92,3,0,3,0.00
2013-7-4,95.4,76.8,62.8,59.5,55.1,50.2,76,51,29,29.98,29.86,11,0,13,0.00
2013-7-5,96.3,79.3,67.6,65.1,60.2,57.0,74,55,38,29.89,29.77,13,0,13,0.00
2013-7-6,94.1,81.2,73.4,68.4,62.8,56.7,66,56,45,29.83,29.74,15,0,15,0.00
2013-7-7,104.7,86.5,73.6,72.0,64.7,61.0,74,54,36,29.89,29.80,14,1,15,0.00
2013-7-8,99.5,86.0,78.1,74.3,69.7,64.8,72,62,47,29.95,29.86,9,0,9,0.00
2013-7-9,104.9,88.5,76.8,75.2,70.5,64.0,78,58,38,29.95,29.83,16,0,16,0.00
2013-7-10,90.7,81.1,72.5,72.3,66.5,60.6,82,61,38,30.09,29.95,4,0,5,0.00
2013-7-11,95.7,80.3,70.0,65.8,60.7,56.1,79,55,36,30.12,29.95,10,0,10,0.00
2013-7-12,100.2,84.1,71.6,72.0,65.5,58.6,70,57,44,30.01,29.92,14,0,14,0.00
2013-7-13,99.5,85.3,77.4,73.9,70.0,66.4,75,64,41,30.06,29.95,12,0,12,0.00
2013-7-14,95.0,81.2,72.0,68.9,62.3,52.5,80,58,32,30.30,30.06,13,0,13,0.00
2013-7-15,98.4,81.5,66.0,68.7,64.0,59.5,82,60,39,30.39,30.24,4,0,4,0.00
2013-7-16,100.4,83.9,69.8,68.4,64.4,58.6,86,59,39,31.96,30.39,8,0,8,0.00
2013-7-17,102.9,85.7,72.3,70.2,67.6,63.5,88,62,41,32.13,30.48,9,0,10,0.00
2013-7-18,103.3,86.6,72.9,71.8,67.1,62.8,84,59,38,32.19,30.95,13,1,14,0.00
2013-7-19,97.5,84.4,75.2,72.5,66.0,59.0,73,56,34,32.22,32.10,9,0,10,0.00
2013-7-20,96.1,80.7,70.7,68.9,63.0,52.3,77,57,29,32.22,32.19,6,0,6,0.00
2013-7-21,101.3,83.1,69.8,71.2,68.8,65.5,93,69,46,32.22,40.00,4,0,4,0.00
2013-7-22,107.1,86.0,70.2,76.6,69.3,59.0,97,66,33,32.22,32.22,8,0,8,0.00
2013-7-23,86.4,74.9,66.4,68.7,65.2,61.9,95,70,52,32.22,32.22,15,0,15,0.39
2013-7-24,90.5,76.1,63.3,65.3,63.2,59.4,92,66,41,32.22,32.22,3,0,3,0.00
2013-7-25,86.7,74.0,68.5,70.9,66.3,62.8,91,76,63,32.22,32.22,8,0,11,0.00
2013-7-26,82.0,72.6,63.3,71.2,60.5,50.7,98,65,32,32.22,32.22,8,0,8,0.00
2013-7-27,77.0,67.0,57.9,56.1,50.1,45.1,82,53,31,32.22,32.22,3,0,4,0.00
2013-7-28,87.8,68.8,54.0,58.5,51.8,46.4,84,57,32,32.22,32.22,5,0,8,0.00
2013-7-29,68.2,65.2,61.2,66.6,62.3,55.8,98,90,65,32.22,40.00,0,0,3,0.63
2013-7-30,77.9,71.1,65.5,70.2,67.5,65.8,98,87,68,32.22,32.22,0,0,0,0.00
2013-7-31,93.6,76.5,64.9,69.3,66.9,63.1,98,74,45,32.22,32.22,0,0,0,0.00
2013-8-1,97.2,77.1,65.8,72.7,66.2,55.4,96,74,35,32.22,32.22,15,0,15,1.14
2013-8-2,89.4,76.2,66.9,69.8,67.5,64.0,98,76,52,32.22,40.00,16,0,17,0.08
2013-8-3,86.5,71.6,64.6,64.8,61.2,56.7,83,67,44,32.22,32.22,4,0,4,0.00
2013-8-4,85.8,70.6,63.7,69.4,63.3,56.7,91,77,67,32.22,32.22,11,0,11,0.00
2013-8-5,95.4,78.2,70.5,75.6,72.3,69.1,98,83,64,32.22,32.22,13,-4,13,0.00
2013-8-6,98.2,80.9,70.7,76.5,73.0,66.2,98,79,59,34.02,26.49,10,0,11,0.00
2013-8-7,87.8,77.1,69.8,73.8,64.3,56.1,88,63,32,27.52,26.49,3,0,4,0.00
2013-8-8,78.8,72.7,68.0,68.0,64.4,61.0,89,73,54,26.49,26.49,3,0,3,0.00
2013-8-9,88.7,74.7,67.5,70.5,65.3,55.9,93,71,36,26.49,26.49,0,0,3,0.00
2013-8-10,92.3,74.5,60.6,64.9,62.6,59.9,92,68,48,26.49,26.49,0,0,0,0.00
2013-8-11,96.4,78.1,65.5,69.1,65.7,61.2,90,70,51,26.49,26.49,0,0,0,0.00
2013-8-12,87.8,76.9,67.8,73.2,67.7,59.2,98,72,42,26.49,26.49,3,0,3,0.12
2013-8-13,83.8,73.3,64.9,63.9,59.2,52.5,85,61,37,26.49,26.49,0,0,0,0.00
2013-8-14,78.6,69.5,61.9,63.3,59.6,55.6,81,70,51,26.49,40.00,0,0,0,0.00
2013-8-15,71.2,67.2,63.7,65.1,63.4,58.8,98,86,68,0.00,40.00,0,0,0,0.31
2013-8-16,73.9,68.3,63.7,62.2,59.8,55.0,89,74,54,0.00,40.00,0,0,0,0.00
2013-8-17,86.7,74.3,63.9,60.3,56.4,52.5,83,56,42,0.00,40.00,0,0,0,0.00
2013-8-18,89.4,72.0,59.0,63.7,58.7,55.4,87,66,45,0.00,40.00,0,0,0,0.00
2013-8-19,96.8,77.8,66.6,69.6,65.9,62.4,90,70,52,0.00,40.00,4,0,4,0.00
2013-8-20,98.8,81.6,70.5,70.3,68.4,66.2,87,69,48,0.00,40.00,4,0,4,0.00
2013-8-21,100.8,83.1,70.9,71.8,68.9,66.4,87,67,48,29.95,29.92,4,0,4,0.00
2013-8-22,94.3,79.2,70.7,70.5,68.4,64.0,88,70,48,30.06,29.95,3,0,3,0.00
2013-8-23,97.7,82.2,72.1,72.0,69.0,64.0,91,69,44,30.04,29.92,3,0,3,0.00
2013-8-24,98.8,85.4,75.4,72.1,69.9,66.7,82,64,46,30.04,29.95,4,0,4,0.00
2013-8-25,103.3,87.1,74.7,73.2,70.5,66.6,87,65,42,30.09,30.01,5,0,5,0.00
2013-8-26,104.4,88.1,75.4,71.6,69.5,66.6,83,61,41,30.06,29.92,4,0,4,0.00
2013-8-27,106.2,88.5,74.5,68.7,66.5,61.0,77,55,35,29.95,29.89,5,0,5,0.00
2013-8-28,103.8,85.6,70.3,69.4,64.8,59.0,81,56,34,29.98,29.92,4,0,4,0.00
2013-8-29,106.5,87.7,72.7,74.8,69.9,64.9,91,63,36,29.98,29.89,4,0,4,0.00
2013-8-30,107.6,86.7,72.7,78.1,70.4,63.9,83,62,32,29.89,29.83,0,0,3,0.00
2013-8-31,104.4,86.2,74.3,76.5,71.1,63.7,90,66,35,29.89,29.77,4,0,4,0.00
2013-9-1,88.5,78.7,68.0,72.9,63.1,53.4,93,59,29,30.01,29.74,4,0,4,0.00
2013-9-2,85.3,71.9,60.8,63.7,57.1,49.8,90,58,32,30.09,29.98,2,0,3,0.00
2013-9-3,95.7,74.4,58.5,62.4,58.0,53.4,85,59,39,30.06,29.98,4,0,4,0.00
2013-9-4,93.4,74.7,64.8,64.0,60.7,52.9,80,63,33,30.15,30.01,0,0,0,0.00
2013-9-5,96.3,79.7,69.3,63.5,61.1,56.8,72,56,36,30.15,30.06,0,0,0,0.00
2013-9-6,101.3,83.2,69.3,68.7,64.4,58.8,78,58,39,30.06,29.89,10,0,11,0.00
2013-9-7,103.5,83.2,73.0,72.3,67.6,62.2,83,62,39,29.89,29.83,4,0,4,0.00
2013-9-8,103.8,84.6,70.7,74.8,70.5,65.5,96,69,39,29.89,29.77,4,0,4,0.00
2013-9-9,107.1,88.5,75.4,65.1,59.0,53.6,60,42,25,29.83,29.77,15,1,15,0.00
2013-9-10,107.1,84.5,72.7,73.8,62.3,55.8,97,54,28,30.04,29.83,12,1,13,0.75
2013-9-11,87.8,75.4,70.0,75.7,72.1,69.6,98,90,74,30.12,30.01,0,0,0,0.67
2013-9-12,83.5,73.2,64.2,70.9,59.1,48.6,98,64,31,30.18,30.09,5,0,5,0.00
2013-9-13,83.8,67.2,55.6,56.7,51.3,45.1,85,58,33,30.21,30.04,4,0,4,0.00
2013-9-14,84.6,70.7,58.8,58.6,52.8,48.6,74,54,39,30.04,29.83,13,0,13,0.00
2013-9-15,70.5,66.8,63.1,68.7,60.7,54.3,98,78,64,30.18,29.83,6,0,6,0.24
2013-9-16,64.0,61.4,57.4,59.4,54.6,51.6,98,76,67,30.27,30.15,4,0,5,0.00
2013-9-17,76.6,66.7,59.2,68.7,64.0,59.2,98,91,69,30.15,29.83,11,0,11,0.20
2013-9-18,99.0,79.1,68.5,69.6,66.8,62.8,97,70,42,29.86,29.65,16,1,17,0.00
2013-9-19,89.8,72.1,60.8,68.0,61.3,50.2,92,67,50,30.01,29.68,13,0,15,0.35
2013-9-20,70.9,61.7,52.2,55.6,48.8,41.7,84,59,33,30.09,29.95,7,0,7,0.00
2013-9-21,84.6,64.6,48.7,54.9,49.9,46.0,89,60,33,30.01,29.83,3,0,3,0.00
2013-9-22,86.9,69.9,57.6,55.8,50.7,45.7,83,54,31,29.86,29.74,11,0,11,0.00
2013-9-23,77.0,67.7,56.7,53.1,49.4,45.7,75,53,33,29.80,29.65,18,1,18,0.00
2013-9-24,71.6,65.0,57.9,58.1,55.6,52.3,85,67,52,29.89,29.65,12,0,12,0.00
2013-9-25,82.0,66.9,53.4,61.2,56.8,53.6,94,70,43,29.89,29.71,8,0,8,0.00
2013-9-26,93.9,76.3,64.9,61.5,57.6,53.8,84,56,31,29.77,29.68,17,1,17,0.00
2013-9-27,94.1,78.7,70.3,59.7,57.7,54.3,66,50,34,29.80,29.68,19,1,19,0.00
2013-9-28,81.5,63.7,52.5,66.0,51.2,42.4,93,61,35,30.04,29.65,15,0,15,0.28
2013-9-29,78.1,62.4,47.5,47.1,43.7,40.1,81,53,27,30.04,29.86,11,0,11,0.00
2013-9-30,81.0,67.2,54.7,52.2,48.7,44.8,81,54,30,29.89,29.68,13,0,13,0.00
2013-10-1,86.4,69.5,56.5,56.1,51.1,47.3,82,50,28,29.95,29.77,4,0,4,0.00
2013-10-2,91.8,72.4,57.4,65.5,58.3,51.6,85,62,39,29.92,29.80,13,0,13,0.00
2013-10-3,79.9,70.4,61.9,67.6,63.5,58.6,98,79,57,29.89,29.65,12,0,12,2.05
2013-10-4,86.0,68.9,52.3,70.5,59.4,34.9,98,75,37,29.92,29.59,13,1,14,0.00
2013-10-5,55.4,48.2,44.2,38.1,33.4,29.8,73,56,44,29.95,29.83,15,2,15,0.00
2013-10-6,60.6,50.2,44.4,47.3,41.7,32.9,94,71,39,30.01,29.80,11,1,11,0.00
2013-10-7,75.0,58.5,42.1,43.7,39.3,36.7,80,51,27,30.06,29.95,9,0,9,0.00
2013-10-8,77.2,64.7,52.5,45.0,41.4,38.3,61,43,30,29.98,29.86,16,0,17,0.00
2013-10-9,78.3,66.5,56.1,50.4,47.3,43.5,69,50,32,29.95,29.89,13,0,13,0.00
2013-10-10,80.1,68.7,57.6,55.2,53.5,50.2,81,59,39,29.95,29.74,15,0,15,0.00
2013-10-11,78.3,67.2,55.8,59.5,50.2,38.3,81,57,24,29.89,29.62,15,1,15,0.00
2013-10-12,66.4,55.6,46.0,43.9,39.7,32.9,72,50,26,30.24,29.89,3,-14,3,0.00
2013-10-13,68.7,55.8,40.6,41.0,36.9,33.8,75,49,28,30.36,30.24,6,0,7,0.00
2013-10-14,61.0,56.2,48.7,60.3,47.4,33.3,98,75,38,30.24,29.71,15,0,15,0.43
2013-10-15,55.2,49.5,46.0,49.5,40.6,35.4,82,68,55,30.06,29.80,17,2,17,0.00
2013-10-16,57.6,48.4,41.7,42.6,36.5,27.5,85,59,29,30.06,29.95,3,0,7,0.00
2013-10-17,60.6,47.4,36.9,42.4,37.2,33.1,84,64,43,30.04,29.89,7,0,10,0.00
2013-10-18,50.9,42.9,37.0,38.3,31.2,25.3,77,59,36,30.12,30.01,4,0,4,0.00
2013-10-19,64.9,47.7,33.3,38.3,33.4,26.8,85,57,34,30.01,29.80,7,0,10,0.00
2013-10-20,64.8,51.8,42.6,43.9,37.7,34.5,73,57,34,30.01,29.71,4,0,8,0.00
2013-10-21,56.3,44.9,33.6,37.0,34.0,30.9,86,62,39,30.09,29.89,10,0,11,0.00
2013-10-22,53.8,47.4,37.0,45.1,37.7,31.3,84,64,44,30.09,29.86,13,0,13,0.00
2013-10-23,57.9,42.9,33.3,39.6,35.2,31.3,89,71,47,30.18,30.01,10,0,10,0.00
2013-10-24,51.4,41.7,33.4,36.7,29.9,25.0,77,55,32,30.39,30.18,3,0,3,0.00
2013-10-25,59.9,45.3,30.4,32.9,28.0,23.9,73,51,34,30.36,30.04,13,1,13,0.00
2013-10-26,53.6,45.0,34.3,37.0,31.5,25.3,73,51,34,30.21,30.01,6,0,6,0.00
2013-10-27,70.7,49.8,30.6,37.9,31.4,24.8,74,50,27,30.12,29.80,11,0,11,0.00
2013-10-28,54.0,47.6,40.3,41.9,35.6,33.3,76,58,43,30.12,29.92,8,1,8,0.00
2013-10-29,52.5,48.7,44.6,53.2,47.7,41.5,98,92,76,30.12,29.89,3,0,4,0.08
2013-10-30,56.5,48.5,44.6,54.5,48.3,41.2,98,93,81,29.95,29.77,0,0,0,0.08
2013-10-31,59.0,47.3,38.5,45.1,39.4,33.3,97,72,40,29.77,29.50,12,0,12,0.00
2013-11-1,59.2,48.9,41.0,43.3,37.4,33.4,76,61,36,30.01,29.62,16,0,16,0.00
2013-11-2,60.6,47.4,36.1,37.4,33.1,28.2,78,54,29,30.18,30.01,3,0,7,0.00
2013-11-3,58.8,51.6,42.8,36.3,31.7,25.7,58,46,37,30.04,29.71,24,1,24,0.00
2013-11-4,58.1,50.6,38.1,43.0,36.4,30.9,73,52,34,30.09,29.74,9,0,9,0.00
2013-11-5,50.2,41.1,35.6,45.5,38.7,32.4,98,86,66,30.09,29.80,14,1,15,1.22
2013-11-6,44.8,37.6,32.7,36.7,32.5,28.6,95,77,52,30.24,30.04,4,0,5,0.00
2013-11-7,50.4,39.7,32.0,34.3,28.9,23.9,89,58,28,30.36,30.21,4,0,10,0.00
2013-11-8,63.1,50.1,35.8,38.3,31.8,24.3,68,48,33,30.21,29.71,18,1,21,0.00
2013-11-9,61.7,48.3,36.9,39.0,34.9,30.7,77,53,27,30.30,29.89,3,0,3,0.00
2013-11-10,55.4,45.0,32.2,36.3,30.6,26.6,77,54,35,30.36,30.09,11,0,11,0.00
2013-11-11,48.9,35.2,20.8,45.3,25.5,9.9,93,62,42,30.71,30.06,17,2,17,0.00
2013-11-12,36.3,24.8,13.3,17.4,10.7,7.5,70,48,31,30.83,30.51,4,0,4,0.00
2013-11-13,55.8,40.3,26.4,30.4,20.4,9.3,53,43,35,30.51,29.95,15,1,15,0.00
2013-11-14,54.9,43.6,34.9,34.2,27.3,20.8,71,49,37,29.95,29.86,11,0,11,0.00
2013-11-15,57.0,43.8,29.5,44.8,32.8,25.7,82,63,38,29.89,29.56,8,0,8,0.00
2013-11-16,64.9,53.5,39.9,52.2,39.2,25.5,93,59,27,29.56,29.33,13,1,15,0.00
2013-11-17,56.8,48.1,37.2,39.0,33.7,27.1,73,53,36,30.04,29.30,15,1,15,0.00
2013-11-18,59.0,43.8,30.2,32.2,25.7,20.7,75,48,25,30.21,30.04,10,0,11,0.00
2013-11-19,62.2,49.9,35.6,34.2,26.0,20.8,57,39,28,30.12,29.80,20,1,20,0.00
2013-11-20,61.5,51.8,39.4,37.0,32.2,24.1,69,45,35,29.89,29.68,15,0,15,0.00
2013-11-21,39.6,28.7,21.6,34.2,21.2,14.9,80,68,56,30.54,29.89,17,3,17,0.00
2013-11-22,30.6,23.0,15.4,17.6,11.4,7.2,74,52,39,30.66,30.54,11,0,11,0.00
2013-11-23,24.4,20.5,15.3,14.0,8.1,1.0,69,48,33,30.83,30.57,5,0,5,0.00
2013-11-24,34.0,23.7,12.7,13.5,7.6,1.9,66,49,38,30.69,30.18,13,1,13,0.00
2013-11-25,45.7,34.2,27.0,29.8,20.2,7.7,65,52,37,30.21,30.12,8,1,9,0.00
2013-11-26,35.8,27.9,18.1,23.7,15.1,5.2,75,52,33,30.54,30.21,15,1,15,0.00
2013-11-27,35.4,25.1,12.0,16.2,10.6,4.8,69,50,39,32.22,30.45,13,0,14,0.00
2013-11-28,36.0,28.4,20.3,21.0,16.8,11.8,71,53,37,32.22,32.22,11,0,13,0.00
2013-11-29,50.4,33.7,17.1,27.1,19.4,10.8,68,52,37,32.22,32.22,11,0,11,0.00
2013-11-30,60.1,40.1,26.6,36.1,25.7,20.7,72,50,27,32.22,32.22,4,0,4,0.00
2013-12-1,49.5,35.7,24.8,30.7,25.0,20.1,74,56,37,32.22,32.22,2,0,2,0.00
2013-12-2,62.6,45.3,29.1,37.8,30.3,23.0,80,52,27,32.22,32.22,3,0,3,0.00
2013-12-3,45.7,37.9,32.5,32.7,30.0,25.7,78,64,43,32.22,32.22,10,0,11,0.00
2013-12-4,34.9,23.0,17.6,31.3,17.6,7.7,88,72,56,32.22,32.22,3,0,5,0.00
2013-12-5,18.1,12.7,9.0,8.2,0.9,-4.7,60,51,43,32.22,32.22,8,0,8,0.00
2013-12-6,14.4,7.6,0.7,2.1,-6.3,-13.4,46,41,35,32.22,32.22,3,0,11,0.00
2013-12-7,12.9,6.3,-1.3,3.6,-8.1,-16.4,61,43,40,32.22,32.22,4,0,4,0.00
2013-12-8,19.8,13.9,4.3,12.4,7.7,0.1,77,68,57,32.22,32.22,6,0,6,0.00
2013-12-9,15.8,6.5,-6.0,5.7,-3.6,-9.9,70,57,42,32.22,32.22,13,1,13,0.00
2013-12-10,30.6,23.2,13.5,23.2,11.2,2.5,74,54,42,32.22,32.22,8,0,10,0.00
2013-12-11,30.7,12.5,3.7,25.2,1.4,-8.0,77,50,39,32.22,32.22,16,1,16,0.00
2013-12-12,34.3,22.1,8.8,19.4,10.3,-7.4,70,54,42,32.22,32.22,6,0,8,0.00
2013-12-13,31.5,21.1,10.9,21.7,15.3,5.9,77,66,51,32.22,32.22,10,0,10,0.00
2013-12-14,24.3,19.4,14.4,18.1,12.7,8.8,77,64,47,32.22,32.22,14,0,14,0.00
2013-12-15,36.1,25.7,17.6,25.2,19.8,13.1,81,69,47,32.22,32.22,3,0,3,0.00
2013-12-16,49.5,30.9,15.8,33.8,22.9,12.2,78,62,37,32.22,32.22,4,0,4,0.00
2013-12-17,44.2,32.9,25.2,28.6,21.9,13.6,83,56,30,32.22,32.22,8,0,8,0.00
2013-12-18,57.4,41.2,29.1,32.4,24.3,18.1,65,48,32,32.22,32.22,11,1,11,0.00
2013-12-19,36.0,29.5,17.4,27.0,21.5,13.6,78,65,46,32.22,32.22,15,1,15,0.00
2013-12-20,19.9,16.3,12.0,14.0,10.0,7.0,79,67,59,32.22,32.22,12,0,15,0.00
2013-12-21,25.9,22.1,19.4,18.0,14.0,10.6,79,64,52,32.22,32.22,8,0,8,0.00
2013-12-22,23.7,18.6,11.1,18.7,10.8,1.2,83,59,41,32.22,32.22,13,0,13,0.00
2013-12-23,13.8,9.9,4.5,5.5,-0.6,-4.7,56,48,35,32.22,32.22,9,0,9,0.00
2013-12-24,29.1,18.0,9.7,25.7,9.2,-6.0,90,67,46,32.22,32.22,14,0,16,0.00
2013-12-25,43.5,29.4,18.7,28.0,19.8,14.2,85,60,37,32.22,32.22,14,0,15,0.00
2013-12-26,52.0,34.1,21.6,28.8,19.2,14.2,70,50,28,32.22,32.22,8,0,8,0.00
2013-12-27,63.3,39.3,21.2,31.5,21.6,13.8,70,48,24,32.22,32.22,13,1,13,0.00
2013-12-28,60.4,41.4,18.3,29.8,23.6,5.2,64,48,26,32.22,32.22,20,2,20,0.00
2013-12-29,18.3,11.7,7.3,5.7,-3.1,-11.6,56,42,29,32.22,32.22,18,2,19,0.00
2013-12-30,42.1,22.9,7.7,24.1,4.7,-11.9,58,43,36,32.22,32.22,13,1,15,0.00
2013-12-31,46.0,22.2,12.6,27.5,10.5,2.5,68,53,35,32.22,32.22,9,1,9,0.00
2014-1-1,12.6,9.6,5.9,4.1,1.6,-0.9,64,62,56,32.22,32.22,13,1,13,0.00
2014-1-2,12.7,6.9,0.9,5.0,-2.0,-8.1,64,56,45,32.22,32.22,3,0,3,0.00